This is the latest recevied weather packets stored in our database for station/object WH6VH. If no packets are shown the sender has not sent any weather packets the latest 10 day(s).
| Time | Temp. | Humidity | Pressure | Rain* | Wind** | Luminosity | Snow |
|---|---|---|---|---|---|---|---|
| 1777952404 | 11.11° C | 66% | 1007.8 hPa | 0 mm | - | - | - |
| 1777949704 | 11.67° C | 62% | 1006.9 hPa | 0 mm | - | - | - |
| 1777947304 | 11.67° C | 62% | 1006.4 hPa | 0 mm | - | - | - |
| 1777944905 | 12.22° C | 57% | 1005.6 hPa | 0 mm | - | - | - |
| 1777944604 | 12.22° C | 57% | 1005.7 hPa | 0 mm | - | - | - |
| 1777944004 | 12.78° C | 55% | 1005.9 hPa | 0 mm | - | - | - |
| 1777942204 | 14.44° C | 47% | 1005.7 hPa | 0 mm | - | - | - |
| 1777941305 | 14.44° C | 43% | 1005.4 hPa | 0 mm | - | - | - |
| 1777940104 | 15° C | 41% | 1005.1 hPa | 0 mm | - | - | - |
| 1777935304 | 17.22° C | 31% | 1003.6 hPa | 0 mm | - | - | - |
| 1777933504 | 17.78° C | 31% | 1003.8 hPa | 0 mm | - | - | - |
| 1777933204 | 17.78° C | 29% | 1003.8 hPa | 0 mm | - | - | - |
| 1777925404 | 21.67° C | 21% | 1003.8 hPa | 0 mm | - | - | - |
| 1777924504 | 22.22° C | 22% | 1003.9 hPa | 0 mm | - | - | - |
| 1777923305 | 19.44° C | 25% | 1004.2 hPa | 0 mm | - | - | - |
| 1777919104 | 20.56° C | 21% | 1004.1 hPa | 0 mm | - | - | - |
| 1777915504 | 21.67° C | 21% | 1004.8 hPa | 0 mm | - | - | - |
| 1777913704 | 20.56° C | 23% | 1005.1 hPa | 0 mm | - | - | - |
| 1777913104 | 20.56° C | 22% | 1005.1 hPa | 0 mm | - | - | - |
| 1777912205 | 20° C | 24% | 1005.2 hPa | 0 mm | - | - | - |
| 1777910704 | 19.44° C | 23% | 1005.6 hPa | 0 mm | - | - | - |
| 1777908604 | 19.44° C | 24% | 1005.7 hPa | 0 mm | - | - | - |
| 1777908005 | 18.89° C | 25% | 1005.8 hPa | 0 mm | - | - | - |
| 1777907705 | 18.33° C | 26% | 1005.8 hPa | 0 mm | - | - | - |
| 1777907105 | 17.22° C | 28% | 1006 hPa | 0 mm | - | - | - |
* Rain latest hour (hover to see other rain measurements)
** Current wind speed in m/s (hover to see current wind gust speed)